Windsor, VT (05089)

9:09 PM EST on February 08, 2016 (GMT -0500)
Ascutney Farm Stand | | Change Station
CLOSE
Current Station
Personal Weather Station
Location: Windsor, VT
Elevation: 427 ft
Nearby Weather Stations

Elev 427 ft 43.41 °N, 72.41 °W | Updated 36 seconds ago

Snow
Snow
21.4 °F
Feels Like 14 °F
N
5.3
Wind Variable Wind from NE

Today
High -- | Low -- °F
--% Chance of Precip.
Yesterday
High -- | Low -- °F
Precip. -- in
Pressure 29.79 in
Visibility 1.8 miles
Clouds Scattered Clouds 1000 ft
Mostly Cloudy 1700 ft
Overcast 2200 ft
Windchill 14 °F
Dew Point 21 °F
Humidity 98%
Rainfall 0.00 in
Snow Depth Not available.
6:58 AM 5:10 PM
New Moon, 0% visible
SPECI KVSF 090207Z AUTO 05003KT 1 3/4SM -SN BR SCT010 BKN017 OVC022 M06/M07 A2979 RMK AO2 P0000 T10561072
Pressure 29.79 in
Visibility 1.8 miles
Clouds Scattered Clouds 1000 ft
Mostly Cloudy 1700 ft
Overcast 2200 ft
Windchill 14 °F
Dew Point 21 °F
Humidity 98%
Rainfall 0.00 in
Snow Depth Not available.
6:58 AM 5:10 PM
New Moon, 0% visible
SPECI KVSF 090207Z AUTO 05003KT 1 3/4SM -SN BR SCT010 BKN017 OVC022 M06/M07 A2979 RMK AO2 P0000 T10561072
Winter Storm will continue impacting eastern New England through Monday night with a combination of heavy snow and strong winds, resulting in dangerous travel conditions. In parts of southeast Massachusetts, blizzard conditions are possible along with tree damage, some power outages and coastal flooding. As of late Monday morning, winds had gusted up to 57 mph on Nantucket Island and coastal flooding was reported in several locations along the Massachusetts coast.

10-Day Weather Forecast

Almanac

Astronomy

Feb. 08, 2016 Rise Set
Actual Time
Civil Twilight
Nautical Twilight
Astronomical Twilight
Moon
Length of Visible Light
Length of Day
Tomorrow will be .
, % of the Moon is Illuminated

Today's Extremes

State Highs State Lows

Community

WunderPhotos

Upload Photos

1,891,527 photos uploaded!

WunderBlog® & News

Nearby

Air Quality

  Air Quality AQ Index Pollutant
Not available.

Snow Depth

Station Depth Elevation

Earthquake Activity

City Distance Mag. Time & Date
Minimum magnitude displayed is 2.5.

Coastal Water Temperatures

Place Temperature

Stations

Nearby Weather Stations

Station Location Temp. Windchill Dew Point Humidity Wind Precip. Elev Updated Type
                   

Watches & Warnings

There are currently no watches in effect.